sensor_id;sensor_type;location;lat;lon;timestamp;temperature;humidity
1225;DHT22;602;48.000;7.840;2023-02-11T00:00:32;2.00;99.90
1225;DHT22;602;48.000;7.840;2023-02-11T00:02:59;2.10;99.90
1225;DHT22;602;48.000;7.840;2023-02-11T00:05:26;2.00;99.90
1225;DHT22;602;48.000;7.840;2023-02-11T00:07:53;1.90;99.90
1225;DHT22;602;48.000;7.840;2023-02-11T00:10:22;1.90;99.90
1225;DHT22;602;48.000;7.840;2023-02-11T00:12:49;1.90;99.90
1225;DHT22;602;48.000;7.840;2023-02-11T00:15:16;1.90;99.90
1225;DHT22;602;48.000;7.840;2023-02-11T00:17:43;1.80;99.90
1225;DHT22;602;48.000;7.840;2023-02-11T00:20:10;1.80;99.90
1225;DHT22;602;48.000;7.840;2023-02-11T00:22:37;1.80;99.90
1225;DHT22;602;48.000;7.840;2023-02-11T00:25:04;1.80;99.90
1225;DHT22;602;48.000;7.840;2023-02-11T00:27:32;2.00;99.90
1225;DHT22;602;48.000;7.840;2023-02-11T00:29:59;2.10;99.90
1225;DHT22;602;48.000;7.840;2023-02-11T00:32:27;2.20;99.90
1225;DHT22;602;48.000;7.840;2023-02-11T00:34:54;2.30;99.90
1225;DHT22;602;48.000;7.840;2023-02-11T00:37:21;2.30;99.90
1225;DHT22;602;48.000;7.840;2023-02-11T00:39:47;2.40;99.90
1225;DHT22;602;48.000;7.840;2023-02-11T00:42:15;2.40;99.90
1225;DHT22;602;48.000;7.840;2023-02-11T00:44:43;2.30;99.90
1225;DHT22;602;48.000;7.840;2023-02-11T00:47:11;2.40;99.90
1225;DHT22;602;48.000;7.840;2023-02-11T00:49:38;2.40;99.90
1225;DHT22;602;48.000;7.840;2023-02-11T00:52:06;2.30;99.90
1225;DHT22;602;48.000;7.840;2023-02-11T00:54:32;2.40;99.90
1225;DHT22;602;48.000;7.840;2023-02-11T00:57:00;2.60;99.90
1225;DHT22;602;48.000;7.840;2023-02-11T00:59:27;2.50;99.90
1225;DHT22;602;48.000;7.840;2023-02-11T01:01:55;2.60;99.90
1225;DHT22;602;48.000;7.840;2023-02-11T01:04:22;2.70;99.90
1225;DHT22;602;48.000;7.840;2023-02-11T01:06:49;2.60;99.90
1225;DHT22;602;48.000;7.840;2023-02-11T01:09:16;2.60;99.90
1225;DHT22;602;48.000;7.840;2023-02-11T01:11:43;2.60;99.90
1225;DHT22;602;48.000;7.840;2023-02-11T01:14:10;2.60;99.90
1225;DHT22;602;48.000;7.840;2023-02-11T01:16:37;2.60;99.90
1225;DHT22;602;48.000;7.840;2023-02-11T01:19:05;2.60;99.90
1225;DHT22;602;48.000;7.840;2023-02-11T01:21:32;2.50;99.90
1225;DHT22;602;48.000;7.840;2023-02-11T01:23:59;2.60;99.90
1225;DHT22;602;48.000;7.840;2023-02-11T01:26:26;2.70;99.90
1225;DHT22;602;48.000;7.840;2023-02-11T01:28:53;2.70;99.90
1225;DHT22;602;48.000;7.840;2023-02-11T01:31:19;2.70;99.90
1225;DHT22;602;48.000;7.840;2023-02-11T01:33:46;2.70;99.90
1225;DHT22;602;48.000;7.840;2023-02-11T01:36:18;2.50;99.90
1225;DHT22;602;48.000;7.840;2023-02-11T01:38:48;2.30;99.90
1225;DHT22;602;48.000;7.840;2023-02-11T01:41:15;2.20;99.90
1225;DHT22;602;48.000;7.840;2023-02-11T01:43:44;2.00;99.90
1225;DHT22;602;48.000;7.840;2023-02-11T01:46:32;2.00;99.90
1225;DHT22;602;48.000;7.840;2023-02-11T01:49:03;1.90;99.90
1225;DHT22;602;48.000;7.840;2023-02-11T01:51:36;1.90;99.90
1225;DHT22;602;48.000;7.840;2023-02-11T01:54:06;1.70;99.90
1225;DHT22;602;48.000;7.840;2023-02-11T01:56:54;1.60;99.90
1225;DHT22;602;48.000;7.840;2023-02-11T01:59:45;1.60;99.90
1225;DHT22;602;48.000;7.840;2023-02-11T02:02:16;1.60;99.90
1225;DHT22;602;48.000;7.840;2023-02-11T02:04:52;1.60;99.90
1225;DHT22;602;48.000;7.840;2023-02-11T02:07:28;1.60;99.90
1225;DHT22;602;48.000;7.840;2023-02-11T02:10:01;1.60;99.90
1225;DHT22;602;48.000;7.840;2023-02-11T02:12:29;1.60;99.90
1225;DHT22;602;48.000;7.840;2023-02-11T02:15:21;1.60;99.90
1225;DHT22;602;48.000;7.840;2023-02-11T02:18:01;1.50;99.90
1225;DHT22;602;48.000;7.840;2023-02-11T02:23:40;1.40;99.90
1225;DHT22;602;48.000;7.840;2023-02-11T02:32:41;1.40;99.90
1225;DHT22;602;48.000;7.840;2023-02-11T02:35:14;1.30;99.90
1225;DHT22;602;48.000;7.840;2023-02-11T02:37:49;1.20;99.90
1225;DHT22;602;48.000;7.840;2023-02-11T02:40:20;1.20;99.90
1225;DHT22;602;48.000;7.840;2023-02-11T02:42:50;1.20;99.90
1225;DHT22;602;48.000;7.840;2023-02-11T02:45:18;1.10;99.90
1225;DHT22;602;48.000;7.840;2023-02-11T02:47:47;1.00;99.90
1225;DHT22;602;48.000;7.840;2023-02-11T02:50:16;1.00;99.90
1225;DHT22;602;48.000;7.840;2023-02-11T02:52:50;0.90;99.90
1225;DHT22;602;48.000;7.840;2023-02-11T02:55:39;0.90;99.90
1225;DHT22;602;48.000;7.840;2023-02-11T02:58:50;0.90;99.90
1225;DHT22;602;48.000;7.840;2023-02-11T03:01:25;0.80;99.90
1225;DHT22;602;48.000;7.840;2023-02-11T03:04:01;0.80;99.90
1225;DHT22;602;48.000;7.840;2023-02-11T03:06:33;0.90;99.90
1225;DHT22;602;48.000;7.840;2023-02-11T03:09:10;1.00;99.90
1225;DHT22;602;48.000;7.840;2023-02-11T03:11:39;1.10;99.90
1225;DHT22;602;48.000;7.840;2023-02-11T03:14:10;1.00;99.90
1225;DHT22;602;48.000;7.840;2023-02-11T03:16:38;1.10;99.90
1225;DHT22;602;48.000;7.840;2023-02-11T03:19:11;1.20;99.90
1225;DHT22;602;48.000;7.840;2023-02-11T03:21:40;1.10;99.90
1225;DHT22;602;48.000;7.840;2023-02-11T03:24:12;1.20;99.90
1225;DHT22;602;48.000;7.840;2023-02-11T03:26:47;1.20;99.90
1225;DHT22;602;48.000;7.840;2023-02-11T03:29:17;1.30;99.90
1225;DHT22;602;48.000;7.840;2023-02-11T03:31:54;1.30;99.90
1225;DHT22;602;48.000;7.840;2023-02-11T03:34:28;1.30;99.90
1225;DHT22;602;48.000;7.840;2023-02-11T03:36:59;1.40;99.90
1225;DHT22;602;48.000;7.840;2023-02-11T03:39:32;1.40;99.90
1225;DHT22;602;48.000;7.840;2023-02-11T03:42:02;1.50;99.90
1225;DHT22;602;48.000;7.840;2023-02-11T03:44:36;1.50;99.90
1225;DHT22;602;48.000;7.840;2023-02-11T03:47:07;1.60;99.90
1225;DHT22;602;48.000;7.840;2023-02-11T03:49:38;1.80;99.90
1225;DHT22;602;48.000;7.840;2023-02-11T03:52:06;1.80;99.90
1225;DHT22;602;48.000;7.840;2023-02-11T03:54:37;1.90;99.90
1225;DHT22;602;48.000;7.840;2023-02-11T03:57:07;1.80;99.90
1225;DHT22;602;48.000;7.840;2023-02-11T03:59:52;1.80;99.90
1225;DHT22;602;48.000;7.840;2023-02-11T04:02:20;1.90;99.90
1225;DHT22;602;48.000;7.840;2023-02-11T04:04:49;2.00;99.90
1225;DHT22;602;48.000;7.840;2023-02-11T04:07:16;2.00;99.90
1225;DHT22;602;48.000;7.840;2023-02-11T04:09:42;2.00;99.90
1225;DHT22;602;48.000;7.840;2023-02-11T04:12:09;2.10;99.90
1225;DHT22;602;48.000;7.840;2023-02-11T04:14:36;1.80;99.90
1225;DHT22;602;48.000;7.840;2023-02-11T04:17:04;1.70;99.90
1225;DHT22;602;48.000;7.840;2023-02-11T04:19:31;1.50;99.90
1225;DHT22;602;48.000;7.840;2023-02-11T04:21:59;1.60;99.90
1225;DHT22;602;48.000;7.840;2023-02-11T04:24:26;1.60;99.90
1225;DHT22;602;48.000;7.840;2023-02-11T04:26:53;1.70;99.90
1225;DHT22;602;48.000;7.840;2023-02-11T04:29:20;1.70;99.90
1225;DHT22;602;48.000;7.840;2023-02-11T04:31:48;1.70;99.90
1225;DHT22;602;48.000;7.840;2023-02-11T04:34:15;1.80;99.90
1225;DHT22;602;48.000;7.840;2023-02-11T04:36:42;1.70;99.90
1225;DHT22;602;48.000;7.840;2023-02-11T04:39:10;1.70;99.90
1225;DHT22;602;48.000;7.840;2023-02-11T04:41:37;1.80;99.90
1225;DHT22;602;48.000;7.840;2023-02-11T04:44:04;1.90;99.90
1225;DHT22;602;48.000;7.840;2023-02-11T04:46:31;1.90;99.90
1225;DHT22;602;48.000;7.840;2023-02-11T04:48:58;1.80;99.90
1225;DHT22;602;48.000;7.840;2023-02-11T04:51:25;1.90;99.90
1225;DHT22;602;48.000;7.840;2023-02-11T04:53:51;1.90;99.90
1225;DHT22;602;48.000;7.840;2023-02-11T04:56:20;2.00;99.90
1225;DHT22;602;48.000;7.840;2023-02-11T04:58:47;2.00;99.90
1225;DHT22;602;48.000;7.840;2023-02-11T05:01:14;1.90;99.90
1225;DHT22;602;48.000;7.840;2023-02-11T05:03:42;1.90;99.90
1225;DHT22;602;48.000;7.840;2023-02-11T05:06:09;2.00;99.90
1225;DHT22;602;48.000;7.840;2023-02-11T05:08:37;2.00;99.90
1225;DHT22;602;48.000;7.840;2023-02-11T05:11:04;2.10;99.90
1225;DHT22;602;48.000;7.840;2023-02-11T05:13:32;2.10;99.90
1225;DHT22;602;48.000;7.840;2023-02-11T05:15:59;2.20;99.90
1225;DHT22;602;48.000;7.840;2023-02-11T05:18:26;2.20;99.90
1225;DHT22;602;48.000;7.840;2023-02-11T05:20:53;2.10;99.90
1225;DHT22;602;48.000;7.840;2023-02-11T05:23:20;2.00;99.90
1225;DHT22;602;48.000;7.840;2023-02-11T05:25:47;2.00;99.90
1225;DHT22;602;48.000;7.840;2023-02-11T05:28:14;1.90;99.90
1225;DHT22;602;48.000;7.840;2023-02-11T05:30:42;1.80;99.90
1225;DHT22;602;48.000;7.840;2023-02-11T05:33:09;1.70;99.90
1225;DHT22;602;48.000;7.840;2023-02-11T05:35:35;1.60;99.90
1225;DHT22;602;48.000;7.840;2023-02-11T05:38:02;1.60;99.90
1225;DHT22;602;48.000;7.840;2023-02-11T05:40:29;1.60;99.90
1225;DHT22;602;48.000;7.840;2023-02-11T05:42:56;1.50;99.90
1225;DHT22;602;48.000;7.840;2023-02-11T05:45:23;1.50;99.90
1225;DHT22;602;48.000;7.840;2023-02-11T05:47:51;1.50;99.90
1225;DHT22;602;48.000;7.840;2023-02-11T05:50:18;1.20;99.90
1225;DHT22;602;48.000;7.840;2023-02-11T05:52:45;1.00;99.90
1225;DHT22;602;48.000;7.840;2023-02-11T05:55:12;1.00;99.90
1225;DHT22;602;48.000;7.840;2023-02-11T05:57:38;1.10;99.90
1225;DHT22;602;48.000;7.840;2023-02-11T06:00:07;1.20;99.90
1225;DHT22;602;48.000;7.840;2023-02-11T06:02:34;1.30;99.90
1225;DHT22;602;48.000;7.840;2023-02-11T06:05:02;1.30;99.90
1225;DHT22;602;48.000;7.840;2023-02-11T06:07:29;1.40;99.90
1225;DHT22;602;48.000;7.840;2023-02-11T06:09:56;1.50;99.90
1225;DHT22;602;48.000;7.840;2023-02-11T06:12:24;1.30;99.90
1225;DHT22;602;48.000;7.840;2023-02-11T06:14:51;1.30;99.90
1225;DHT22;602;48.000;7.840;2023-02-11T06:17:18;1.20;99.90
1225;DHT22;602;48.000;7.840;2023-02-11T06:19:45;1.30;99.90
1225;DHT22;602;48.000;7.840;2023-02-11T06:22:13;1.30;99.90
1225;DHT22;602;48.000;7.840;2023-02-11T06:24:40;1.30;99.90
1225;DHT22;602;48.000;7.840;2023-02-11T06:27:08;1.30;99.90
1225;DHT22;602;48.000;7.840;2023-02-11T06:29:35;1.40;99.90
1225;DHT22;602;48.000;7.840;2023-02-11T06:32:01;1.50;99.90
1225;DHT22;602;48.000;7.840;2023-02-11T06:34:28;1.60;99.90
1225;DHT22;602;48.000;7.840;2023-02-11T06:36:55;1.70;99.90
1225;DHT22;602;48.000;7.840;2023-02-11T06:39:24;1.70;99.90
1225;DHT22;602;48.000;7.840;2023-02-11T06:41:50;1.70;99.90
1225;DHT22;602;48.000;7.840;2023-02-11T06:44:17;1.70;99.90
1225;DHT22;602;48.000;7.840;2023-02-11T06:46:44;1.70;99.90
1225;DHT22;602;48.000;7.840;2023-02-11T06:49:11;1.70;99.90
1225;DHT22;602;48.000;7.840;2023-02-11T06:51:38;1.80;99.90
1225;DHT22;602;48.000;7.840;2023-02-11T06:54:05;1.90;99.90
1225;DHT22;602;48.000;7.840;2023-02-11T06:56:34;1.90;99.90
1225;DHT22;602;48.000;7.840;2023-02-11T06:59:01;2.00;99.90
1225;DHT22;602;48.000;7.840;2023-02-11T07:01:28;2.00;99.90
1225;DHT22;602;48.000;7.840;2023-02-11T07:03:55;2.00;99.90
1225;DHT22;602;48.000;7.840;2023-02-11T07:06:23;1.90;99.90
1225;DHT22;602;48.000;7.840;2023-02-11T07:08:53;1.90;99.90
1225;DHT22;602;48.000;7.840;2023-02-11T07:11:22;1.80;99.90
1225;DHT22;602;48.000;7.840;2023-02-11T07:13:51;1.80;99.90
1225;DHT22;602;48.000;7.840;2023-02-11T07:16:19;1.60;99.90
1225;DHT22;602;48.000;7.840;2023-02-11T07:18:47;1.60;99.90
1225;DHT22;602;48.000;7.840;2023-02-11T07:21:16;1.40;99.90
1225;DHT22;602;48.000;7.840;2023-02-11T07:23:45;1.30;99.90
1225;DHT22;602;48.000;7.840;2023-02-11T07:26:14;1.40;99.90
1225;DHT22;602;48.000;7.840;2023-02-11T07:28:43;1.50;99.90
1225;DHT22;602;48.000;7.840;2023-02-11T07:31:13;1.50;99.90
1225;DHT22;602;48.000;7.840;2023-02-11T07:33:40;1.60;99.90
1225;DHT22;602;48.000;7.840;2023-02-11T07:36:09;1.50;99.90
1225;DHT22;602;48.000;7.840;2023-02-11T07:38:36;1.40;99.90
1225;DHT22;602;48.000;7.840;2023-02-11T07:41:06;1.50;99.90
1225;DHT22;602;48.000;7.840;2023-02-11T07:43:34;1.50;99.90
1225;DHT22;602;48.000;7.840;2023-02-11T07:46:02;1.50;99.90
1225;DHT22;602;48.000;7.840;2023-02-11T07:48:30;1.50;99.90
1225;DHT22;602;48.000;7.840;2023-02-11T07:51:04;1.60;99.90
1225;DHT22;602;48.000;7.840;2023-02-11T07:53:31;1.50;99.90
1225;DHT22;602;48.000;7.840;2023-02-11T07:55:58;1.60;99.90
1225;DHT22;602;48.000;7.840;2023-02-11T07:58:25;1.60;99.90
1225;DHT22;602;48.000;7.840;2023-02-11T08:00:52;1.60;99.90
1225;DHT22;602;48.000;7.840;2023-02-11T08:03:18;1.80;99.90
1225;DHT22;602;48.000;7.840;2023-02-11T08:05:47;1.90;99.90
1225;DHT22;602;48.000;7.840;2023-02-11T08:08:13;2.00;99.90
1225;DHT22;602;48.000;7.840;2023-02-11T08:10:40;2.10;99.90
1225;DHT22;602;48.000;7.840;2023-02-11T08:30:32;2.40;99.90
1225;DHT22;602;48.000;7.840;2023-02-11T08:32:59;3.20;99.90
1225;DHT22;602;48.000;7.840;2023-02-11T08:35:26;3.30;99.90
1225;DHT22;602;48.000;7.840;2023-02-11T08:37:53;3.30;99.90
1225;DHT22;602;48.000;7.840;2023-02-11T08:40:20;3.20;99.90
1225;DHT22;602;48.000;7.840;2023-02-11T08:42:47;3.20;99.90
1225;DHT22;602;48.000;7.840;2023-02-11T08:45:14;3.30;99.90
1225;DHT22;602;48.000;7.840;2023-02-11T08:47:42;3.40;99.90
1225;DHT22;602;48.000;7.840;2023-02-11T08:50:09;3.50;99.90
1225;DHT22;602;48.000;7.840;2023-02-11T08:52:36;3.70;99.90
1225;DHT22;602;48.000;7.840;2023-02-11T08:55:03;4.00;99.90
1225;DHT22;602;48.000;7.840;2023-02-11T08:57:30;4.40;99.90
1225;DHT22;602;48.000;7.840;2023-02-11T08:59:57;4.60;99.90
1225;DHT22;602;48.000;7.840;2023-02-11T09:02:24;4.90;99.90
1225;DHT22;602;48.000;7.840;2023-02-11T09:04:52;5.00;99.90
1225;DHT22;602;48.000;7.840;2023-02-11T09:07:19;5.10;99.90
1225;DHT22;602;48.000;7.840;2023-02-11T09:09:46;5.20;99.90
1225;DHT22;602;48.000;7.840;2023-02-11T09:12:13;5.40;99.90
1225;DHT22;602;48.000;7.840;2023-02-11T09:14:39;5.50;99.90
1225;DHT22;602;48.000;7.840;2023-02-11T09:17:07;5.70;99.90
1225;DHT22;602;48.000;7.840;2023-02-11T09:19:34;6.00;99.90
1225;DHT22;602;48.000;7.840;2023-02-11T09:22:02;6.30;99.90
1225;DHT22;602;48.000;7.840;2023-02-11T09:24:29;6.60;99.90
1225;DHT22;602;48.000;7.840;2023-02-11T09:26:56;6.80;99.90
1225;DHT22;602;48.000;7.840;2023-02-11T09:29:23;7.00;99.90
1225;DHT22;602;48.000;7.840;2023-02-11T09:31:50;7.10;99.90
1225;DHT22;602;48.000;7.840;2023-02-11T09:34:16;7.50;99.90
1225;DHT22;602;48.000;7.840;2023-02-11T09:36:43;7.80;99.90
1225;DHT22;602;48.000;7.840;2023-02-11T09:39:14;8.00;99.90
1225;DHT22;602;48.000;7.840;2023-02-11T09:42:09;8.10;99.90
1225;DHT22;602;48.000;7.840;2023-02-11T09:44:39;8.30;99.90
1225;DHT22;602;48.000;7.840;2023-02-11T09:47:23;8.50;99.90
1225;DHT22;602;48.000;7.840;2023-02-11T09:49:56;8.60;99.90
1225;DHT22;602;48.000;7.840;2023-02-11T09:52:32;8.90;99.90
1225;DHT22;602;48.000;7.840;2023-02-11T09:55:05;9.30;99.90
1225;DHT22;602;48.000;7.840;2023-02-11T09:57:38;9.50;99.90
1225;DHT22;602;48.000;7.840;2023-02-11T10:00:16;9.30;99.90
1225;DHT22;602;48.000;7.840;2023-02-11T10:02:55;9.10;99.90
1225;DHT22;602;48.000;7.840;2023-02-11T10:05:42;9.10;99.90
1225;DHT22;602;48.000;7.840;2023-02-11T10:08:15;9.30;99.90
1225;DHT22;602;48.000;7.840;2023-02-11T10:10:51;9.50;99.90
1225;DHT22;602;48.000;7.840;2023-02-11T10:13:29;9.80;99.90
1225;DHT22;602;48.000;7.840;2023-02-11T10:16:04;10.10;99.90
1225;DHT22;602;48.000;7.840;2023-02-11T10:18:45;10.50;99.90
1225;DHT22;602;48.000;7.840;2023-02-11T10:21:24;10.60;99.90
1225;DHT22;602;48.000;7.840;2023-02-11T10:23:59;10.50;99.90
1225;DHT22;602;48.000;7.840;2023-02-11T10:26:29;10.80;99.90
1225;DHT22;602;48.000;7.840;2023-02-11T10:29:00;10.90;99.90
1225;DHT22;602;48.000;7.840;2023-02-11T10:31:34;11.20;99.90
1225;DHT22;602;48.000;7.840;2023-02-11T10:34:05;11.20;99.90
1225;DHT22;602;48.000;7.840;2023-02-11T10:36:34;11.50;99.90
1225;DHT22;602;48.000;7.840;2023-02-11T10:39:10;11.70;99.90
1225;DHT22;602;48.000;7.840;2023-02-11T10:41:41;11.70;99.90
1225;DHT22;602;48.000;7.840;2023-02-11T10:44:18;11.80;99.90
1225;DHT22;602;48.000;7.840;2023-02-11T10:46:48;11.70;99.90
1225;DHT22;602;48.000;7.840;2023-02-11T10:49:35;12.00;99.90
1225;DHT22;602;48.000;7.840;2023-02-11T10:52:13;12.50;99.90
1225;DHT22;602;48.000;7.840;2023-02-11T10:54:40;12.40;99.90
1225;DHT22;602;48.000;7.840;2023-02-11T10:57:17;12.60;99.90
1225;DHT22;602;48.000;7.840;2023-02-11T10:59:45;12.60;99.90
1225;DHT22;602;48.000;7.840;2023-02-11T11:02:21;12.60;99.90
1225;DHT22;602;48.000;7.840;2023-02-11T11:04:49;12.90;99.90
1225;DHT22;602;48.000;7.840;2023-02-11T11:07:23;13.10;99.90
1225;DHT22;602;48.000;7.840;2023-02-11T11:09:53;13.10;99.90
1225;DHT22;602;48.000;7.840;2023-02-11T11:12:34;13.00;99.90
1225;DHT22;602;48.000;7.840;2023-02-11T11:15:14;13.10;99.90
1225;DHT22;602;48.000;7.840;2023-02-11T11:17:43;13.30;99.90
1225;DHT22;602;48.000;7.840;2023-02-11T11:20:17;13.20;99.90
1225;DHT22;602;48.000;7.840;2023-02-11T11:22:44;13.10;99.90
1225;DHT22;602;48.000;7.840;2023-02-11T11:25:24;13.50;99.90
1225;DHT22;602;48.000;7.840;2023-02-11T11:27:55;13.70;99.90
1225;DHT22;602;48.000;7.840;2023-02-11T11:30:26;13.60;99.90
1225;DHT22;602;48.000;7.840;2023-02-11T11:32:57;13.80;99.90
1225;DHT22;602;48.000;7.840;2023-02-11T11:35:26;13.90;99.90
1225;DHT22;602;48.000;7.840;2023-02-11T11:37:57;13.80;99.90
1225;DHT22;602;48.000;7.840;2023-02-11T11:40:26;13.90;99.90
1225;DHT22;602;48.000;7.840;2023-02-11T11:43:16;14.10;99.90
1225;DHT22;602;48.000;7.840;2023-02-11T11:45:54;14.10;99.90
1225;DHT22;602;48.000;7.840;2023-02-11T11:48:24;14.40;99.90
1225;DHT22;602;48.000;7.840;2023-02-11T11:50:54;14.50;99.90
1225;DHT22;602;48.000;7.840;2023-02-11T11:53:27;14.70;99.90
1225;DHT22;602;48.000;7.840;2023-02-11T11:56:00;14.50;99.90
1225;DHT22;602;48.000;7.840;2023-02-11T11:58:31;14.60;99.90
1225;DHT22;602;48.000;7.840;2023-02-11T12:01:04;14.60;99.90
1225;DHT22;602;48.000;7.840;2023-02-11T12:06:54;14.80;99.90
1225;DHT22;602;48.000;7.840;2023-02-11T12:09:28;14.90;99.90
1225;DHT22;602;48.000;7.840;2023-02-11T12:12:07;14.80;99.90
1225;DHT22;602;48.000;7.840;2023-02-11T12:14:42;14.80;99.90
1225;DHT22;602;48.000;7.840;2023-02-11T12:17:20;15.20;99.40
1225;DHT22;602;48.000;7.840;2023-02-11T12:19:58;15.30;99.70
1225;DHT22;602;48.000;7.840;2023-02-11T12:22:40;15.20;98.90
1225;DHT22;602;48.000;7.840;2023-02-11T12:25:25;15.20;99.10
1225;DHT22;602;48.000;7.840;2023-02-11T12:28:00;15.50;99.00
1225;DHT22;602;48.000;7.840;2023-02-11T12:30:51;15.50;97.80
1225;DHT22;602;48.000;7.840;2023-02-11T12:33:31;15.20;97.50
1225;DHT22;602;48.000;7.840;2023-02-11T12:36:07;15.00;97.60
1225;DHT22;602;48.000;7.840;2023-02-11T12:38:55;15.10;97.80
1225;DHT22;602;48.000;7.840;2023-02-11T12:41:39;15.50;97.40
1225;DHT22;602;48.000;7.840;2023-02-11T12:44:36;15.90;96.60
1225;DHT22;602;48.000;7.840;2023-02-11T12:47:16;15.70;96.30
1225;DHT22;602;48.000;7.840;2023-02-11T12:50:06;15.60;95.70
1225;DHT22;602;48.000;7.840;2023-02-11T12:52:55;15.80;95.20
1225;DHT22;602;48.000;7.840;2023-02-11T12:55:25;15.70;94.60
1225;DHT22;602;48.000;7.840;2023-02-11T12:57:55;15.60;94.40
1225;DHT22;602;48.000;7.840;2023-02-11T13:00:37;15.70;94.80
1225;DHT22;602;48.000;7.840;2023-02-11T13:03:11;15.60;94.50
1225;DHT22;602;48.000;7.840;2023-02-11T13:05:43;15.50;94.40
1225;DHT22;602;48.000;7.840;2023-02-11T13:08:14;15.60;94.40
1225;DHT22;602;48.000;7.840;2023-02-11T13:10:45;15.50;92.70
1225;DHT22;602;48.000;7.840;2023-02-11T13:13:16;15.60;93.10
1225;DHT22;602;48.000;7.840;2023-02-11T13:15:49;15.60;93.30
1225;DHT22;602;48.000;7.840;2023-02-11T13:18:35;15.70;93.40
1225;DHT22;602;48.000;7.840;2023-02-11T13:24:06;15.70;92.70
1225;DHT22;602;48.000;7.840;2023-02-11T13:26:39;15.70;92.60
1225;DHT22;602;48.000;7.840;2023-02-11T13:29:21;15.90;92.70
1225;DHT22;602;48.000;7.840;2023-02-11T13:31:54;15.80;92.80
1225;DHT22;602;48.000;7.840;2023-02-11T13:34:54;15.90;92.00
1225;DHT22;602;48.000;7.840;2023-02-11T13:37:23;16.00;91.90
1225;DHT22;602;48.000;7.840;2023-02-11T13:39:56;15.80;92.50
1225;DHT22;602;48.000;7.840;2023-02-11T13:42:23;15.90;92.70
1225;DHT22;602;48.000;7.840;2023-02-11T13:44:50;15.90;92.50
1225;DHT22;602;48.000;7.840;2023-02-11T13:47:25;16.10;92.50
1225;DHT22;602;48.000;7.840;2023-02-11T13:49:54;15.90;91.80
1225;DHT22;602;48.000;7.840;2023-02-11T13:52:24;16.10;91.80
1225;DHT22;602;48.000;7.840;2023-02-11T13:54:54;15.80;91.50
1225;DHT22;602;48.000;7.840;2023-02-11T13:57:40;15.80;92.50
1225;DHT22;602;48.000;7.840;2023-02-11T14:03:33;15.80;92.10
1225;DHT22;602;48.000;7.840;2023-02-11T14:06:25;15.60;91.20
1225;DHT22;602;48.000;7.840;2023-02-11T14:12:33;15.10;88.70
1225;DHT22;602;48.000;7.840;2023-02-11T14:15:19;15.00;90.20
1225;DHT22;602;48.000;7.840;2023-02-11T14:17:46;14.90;90.10
1225;DHT22;602;48.000;7.840;2023-02-11T14:20:33;14.80;88.10
1225;DHT22;602;48.000;7.840;2023-02-11T14:23:03;14.70;88.90
1225;DHT22;602;48.000;7.840;2023-02-11T14:25:30;13.90;88.30
1225;DHT22;602;48.000;7.840;2023-02-11T14:28:01;13.80;90.00
1225;DHT22;602;48.000;7.840;2023-02-11T14:30:43;13.70;90.00
1225;DHT22;602;48.000;7.840;2023-02-11T14:33:36;13.60;90.80
1225;DHT22;602;48.000;7.840;2023-02-11T14:39:04;13.70;92.10
1225;DHT22;602;48.000;7.840;2023-02-11T14:41:38;13.80;92.30
1225;DHT22;602;48.000;7.840;2023-02-11T14:44:26;13.70;92.30
1225;DHT22;602;48.000;7.840;2023-02-11T14:46:57;13.80;92.50
1225;DHT22;602;48.000;7.840;2023-02-11T14:49:30;13.90;92.40
1225;DHT22;602;48.000;7.840;2023-02-11T14:52:03;13.50;92.60
1225;DHT22;602;48.000;7.840;2023-02-11T14:54:35;13.30;93.20
1225;DHT22;602;48.000;7.840;2023-02-11T14:57:12;13.50;93.60
1225;DHT22;602;48.000;7.840;2023-02-11T14:59:52;13.50;94.00
1225;DHT22;602;48.000;7.840;2023-02-11T15:02:21;13.50;94.00
1225;DHT22;602;48.000;7.840;2023-02-11T15:04:50;13.60;93.90
1225;DHT22;602;48.000;7.840;2023-02-11T15:07:17;13.60;94.30
1225;DHT22;602;48.000;7.840;2023-02-11T15:09:47;13.40;95.30
1225;DHT22;602;48.000;7.840;2023-02-11T15:12:18;13.50;95.90
1225;DHT22;602;48.000;7.840;2023-02-11T15:14:50;13.40;96.00
1225;DHT22;602;48.000;7.840;2023-02-11T15:17:26;13.50;96.40
1225;DHT22;602;48.000;7.840;2023-02-11T15:19:59;13.20;96.80
1225;DHT22;602;48.000;7.840;2023-02-11T15:22:29;13.10;97.10
1225;DHT22;602;48.000;7.840;2023-02-11T15:25:09;13.10;97.10
1225;DHT22;602;48.000;7.840;2023-02-11T15:27:40;13.10;97.30
1225;DHT22;602;48.000;7.840;2023-02-11T15:30:27;12.90;97.50
1225;DHT22;602;48.000;7.840;2023-02-11T15:32:56;12.80;98.00
1225;DHT22;602;48.000;7.840;2023-02-11T15:35:25;12.60;98.30
1225;DHT22;602;48.000;7.840;2023-02-11T15:37:59;12.60;98.40
1225;DHT22;602;48.000;7.840;2023-02-11T15:40:29;12.60;98.70
1225;DHT22;602;48.000;7.840;2023-02-11T15:42:58;12.60;98.80
1225;DHT22;602;48.000;7.840;2023-02-11T15:45:29;12.70;99.10
1225;DHT22;602;48.000;7.840;2023-02-11T15:48:06;12.60;99.50
1225;DHT22;602;48.000;7.840;2023-02-11T15:50:36;12.60;99.80
1225;DHT22;602;48.000;7.840;2023-02-11T15:53:22;12.60;99.90
1225;DHT22;602;48.000;7.840;2023-02-11T15:55:53;12.60;99.90
1225;DHT22;602;48.000;7.840;2023-02-11T15:58:25;12.60;99.90
1225;DHT22;602;48.000;7.840;2023-02-11T16:00:52;12.60;99.90
1225;DHT22;602;48.000;7.840;2023-02-11T16:03:25;12.60;99.90
1225;DHT22;602;48.000;7.840;2023-02-11T16:05:53;12.50;99.90
1225;DHT22;602;48.000;7.840;2023-02-11T16:08:23;12.50;99.90
1225;DHT22;602;48.000;7.840;2023-02-11T16:10:56;12.30;99.90
1225;DHT22;602;48.000;7.840;2023-02-11T16:13:28;12.30;99.90
1225;DHT22;602;48.000;7.840;2023-02-11T16:16:00;12.30;99.90
1225;DHT22;602;48.000;7.840;2023-02-11T16:18:34;12.30;99.90
1225;DHT22;602;48.000;7.840;2023-02-11T16:21:03;12.20;99.90
1225;DHT22;602;48.000;7.840;2023-02-11T16:23:33;12.10;99.90
1225;DHT22;602;48.000;7.840;2023-02-11T16:26:03;12.10;99.90
1225;DHT22;602;48.000;7.840;2023-02-11T16:28:33;12.10;99.90
1225;DHT22;602;48.000;7.840;2023-02-11T16:31:00;12.00;99.90
1225;DHT22;602;48.000;7.840;2023-02-11T16:33:27;12.00;99.90
1225;DHT22;602;48.000;7.840;2023-02-11T16:35:54;11.80;99.90
1225;DHT22;602;48.000;7.840;2023-02-11T16:38:22;11.60;99.90
1225;DHT22;602;48.000;7.840;2023-02-11T16:40:49;11.60;99.90
1225;DHT22;602;48.000;7.840;2023-02-11T16:43:20;11.60;99.90
1225;DHT22;602;48.000;7.840;2023-02-11T16:45:47;11.50;99.90
1225;DHT22;602;48.000;7.840;2023-02-11T16:48:16;11.40;99.90
1225;DHT22;602;48.000;7.840;2023-02-11T16:50:46;11.40;99.90
1225;DHT22;602;48.000;7.840;2023-02-11T16:53:17;11.40;99.90
1225;DHT22;602;48.000;7.840;2023-02-11T16:55:46;10.90;99.90
1225;DHT22;602;48.000;7.840;2023-02-11T16:58:12;10.90;99.90
1225;DHT22;602;48.000;7.840;2023-02-11T17:00:41;10.90;99.90
1225;DHT22;602;48.000;7.840;2023-02-11T17:03:15;10.90;99.90
1225;DHT22;602;48.000;7.840;2023-02-11T17:05:43;10.80;99.90
1225;DHT22;602;48.000;7.840;2023-02-11T17:08:10;10.70;99.90
1225;DHT22;602;48.000;7.840;2023-02-11T17:10:37;10.60;99.90
1225;DHT22;602;48.000;7.840;2023-02-11T17:13:04;10.60;99.90
1225;DHT22;602;48.000;7.840;2023-02-11T17:15:31;10.70;99.90
1225;DHT22;602;48.000;7.840;2023-02-11T17:17:59;10.70;99.90
1225;DHT22;602;48.000;7.840;2023-02-11T17:20:26;10.70;99.90
1225;DHT22;602;48.000;7.840;2023-02-11T17:22:53;10.70;99.90
1225;DHT22;602;48.000;7.840;2023-02-11T17:25:20;10.50;99.90
1225;DHT22;602;48.000;7.840;2023-02-11T17:27:49;10.40;99.90
1225;DHT22;602;48.000;7.840;2023-02-11T17:30:16;10.30;99.90
1225;DHT22;602;48.000;7.840;2023-02-11T17:32:43;10.20;99.90
1225;DHT22;602;48.000;7.840;2023-02-11T17:35:13;10.10;99.90